Edina, MN (55435)

1:36 AM CDT on August 27, 2016 (GMT -0500)
Cornelia | | Change Station

Elev 860 ft 44.87 °N, 93.34 °W | Updated 4 seconds ago

Overcast
Overcast
64.8 °F
Feels Like 64.8 °F
N
0.0
Wind Variable Wind from SSE
Gusts 0.0 mph

Today
High -- | Low -- °F
--% Chance of Precip.
Yesterday
High -- | Low -- °F
Precip. -- in
Pressure 30.09 in
Visibility 10.0 miles
Clouds Mostly Cloudy 11000 ft
Overcast 18000 ft
Dew Point 59 °F
Humidity 81%
Rainfall 0.00 in
Snow Depth Not available.
6:30 AM 7:58 PM
Waning Crescent, 27% visible
METAR KMSP 270553Z 14006KT 10SM BKN110 OVC180 18/13 A3010 RMK AO2 SLP189 T01830128 10211 20178 402220139 56011
Pressure 30.09 in
Visibility 10.0 miles
Clouds Mostly Cloudy 11000 ft
Overcast 18000 ft
Dew Point 59 °F
Humidity 81%
Rainfall 0.00 in
Snow Depth Not available.
6:30 AM 7:58 PM
Waning Crescent, 27% visible
METAR KMSP 270553Z 14006KT 10SM BKN110 OVC180 18/13 A3010 RMK AO2 SLP189 T01830128 10211 20178 402220139 56011

10-Day Weather Forecast

Almanac

Astronomy

Aug. 27, 2016 Rise Set
Actual Time
Civil Twilight
Nautical Twilight
Astronomical Twilight
Moon
Length of Visible Light
Length of Day
Tomorrow will be .
, % of the Moon is Illuminated

Today's Extremes

State Highs State Lows

Community

WunderPhotos

Upload Photos

1,935,303 photos uploaded!

WunderBlog® & News

Nearby

Air Quality

  Air Quality AQ Index Pollutant
Not available.

Snow Depth

Station Depth Elevation

Earthquake Activity

City Distance Mag. Time & Date
Minimum magnitude displayed is 2.5.

Coastal Water Temperatures

Place Temperature

Stations

Nearby Weather Stations

Station Location Temp. Windchill Dew Point Humidity Wind Precip. Elev Updated Type
                   

Watches & Warnings

There are currently no watches in effect.